Eheart, Virginia
Current Conditions -  °F | °C
As of 10:55 AM on Friday 28 Nov 2014 (Local Time) from KGVE Reporting Station
Broken Clouds Broken Clouds  
Wind Chill: 31°   Ceiling: 4900
Heat Index: 37°   Visibility: 10mi
Dew Point: 17°   Wind: 7mph
Humidity: 45%   Direction: 290°WNW
Pressure: 30.33"   Gusts: 16mph
Location:  38.2068°N, 78.3055°W
Report Text: KGVE 281555Z AUTO 29006G14KT 10SM BKN049 03/M08 A3033 RMK AO1 T00261083
Loading
Personal Weather Stations






























Interactive Weather Map New forecast layout! Learn more

10-Day Weather Forecast

Advertisements
Track Severe Weather on mobile